sensor_id;sensor_type;location;lat;lon;timestamp;P1;P2;P0
46302;PMS7003;32029;51.358;5.628;2022-10-26T00:01:32;12.00;11.67;10.00
46302;PMS7003;32029;51.358;5.628;2022-10-26T00:03:59;15.00;12.00;9.00
46302;PMS7003;32029;51.358;5.628;2022-10-26T00:06:32;17.00;16.00;12.00
46302;PMS7003;32029;51.358;5.628;2022-10-26T00:08:59;16.00;13.67;10.67
46302;PMS7003;32029;51.358;5.628;2022-10-26T00:11:26;16.33;11.33;10.00
46302;PMS7003;32029;51.358;5.628;2022-10-26T00:13:54;14.33;12.00;9.33
46302;PMS7003;32029;51.358;5.628;2022-10-26T00:16:22;15.67;12.00;10.00
46302;PMS7003;32029;51.358;5.628;2022-10-26T00:18:51;11.00;11.00;9.00
46302;PMS7003;32029;51.358;5.628;2022-10-26T00:21:18;13.67;11.33;9.00
46302;PMS7003;32029;51.358;5.628;2022-10-26T00:23:51;16.33;13.67;10.00
46302;PMS7003;32029;51.358;5.628;2022-10-26T00:26:18;14.67;12.33;10.33
46302;PMS7003;32029;51.358;5.628;2022-10-26T00:28:46;18.00;15.33;10.67
46302;PMS7003;32029;51.358;5.628;2022-10-26T00:31:14;16.33;15.67;11.00
46302;PMS7003;32029;51.358;5.628;2022-10-26T00:33:42;13.67;13.67;11.00
46302;PMS7003;32029;51.358;5.628;2022-10-26T00:36:10;14.67;14.67;11.00
46302;PMS7003;32029;51.358;5.628;2022-10-26T00:38:39;12.00;12.00;10.00
46302;PMS7003;32029;51.358;5.628;2022-10-26T00:41:15;15.33;12.33;9.33
46302;PMS7003;32029;51.358;5.628;2022-10-26T00:43:47;15.00;13.67;11.00
46302;PMS7003;32029;51.358;5.628;2022-10-26T00:46:16;15.67;14.67;10.67
46302;PMS7003;32029;51.358;5.628;2022-10-26T00:48:52;17.00;13.00;10.00
46302;PMS7003;32029;51.358;5.628;2022-10-26T00:51:26;10.00;7.33;4.33
46302;PMS7003;32029;51.358;5.628;2022-10-26T00:54:02;14.67;13.33;10.33
46302;PMS7003;32029;51.358;5.628;2022-10-26T00:56:32;15.67;14.00;9.33
46302;PMS7003;32029;51.358;5.628;2022-10-26T00:59:04;9.33;9.33;8.33
46302;PMS7003;32029;51.358;5.628;2022-10-26T01:01:37;14.33;14.00;11.67
46302;PMS7003;32029;51.358;5.628;2022-10-26T01:04:06;14.67;13.00;10.33
46302;PMS7003;32029;51.358;5.628;2022-10-26T01:06:33;13.67;12.67;9.33
46302;PMS7003;32029;51.358;5.628;2022-10-26T01:09:03;17.00;16.00;12.00
46302;PMS7003;32029;51.358;5.628;2022-10-26T01:11:32;17.00;16.00;11.00
46302;PMS7003;32029;51.358;5.628;2022-10-26T01:13:59;21.67;17.33;11.33
46302;PMS7003;32029;51.358;5.628;2022-10-26T01:16:43;19.00;18.00;13.00
46302;PMS7003;32029;51.358;5.628;2022-10-26T01:22:28;20.67;16.00;11.67
46302;PMS7003;32029;51.358;5.628;2022-10-26T01:25:15;21.00;18.33;11.67
46302;PMS7003;32029;51.358;5.628;2022-10-26T01:28:29;17.67;14.00;10.67
46302;PMS7003;32029;51.358;5.628;2022-10-26T01:31:10;16.00;14.67;10.00
46302;PMS7003;32029;51.358;5.628;2022-10-26T01:33:46;14.00;14.00;10.00
46302;PMS7003;32029;51.358;5.628;2022-10-26T01:36:29;17.00;16.33;11.00
46302;PMS7003;32029;51.358;5.628;2022-10-26T01:39:14;11.67;11.67;9.33
46302;PMS7003;32029;51.358;5.628;2022-10-26T01:41:50;13.00;10.67;9.00
46302;PMS7003;32029;51.358;5.628;2022-10-26T01:44:20;17.00;13.67;9.00
46302;PMS7003;32029;51.358;5.628;2022-10-26T01:46:55;9.60;8.60;6.00
46302;PMS7003;32029;51.358;5.628;2022-10-26T01:49:26;14.67;13.00;10.00
46302;PMS7003;32029;51.358;5.628;2022-10-26T01:51:58;12.33;10.33;8.67
46302;PMS7003;32029;51.358;5.628;2022-10-26T01:54:27;10.40;9.60;8.20
46302;PMS7003;32029;51.358;5.628;2022-10-26T01:56:55;10.67;9.33;7.33
46302;PMS7003;32029;51.358;5.628;2022-10-26T01:59:42;10.60;9.20;6.00
46302;PMS7003;32029;51.358;5.628;2022-10-26T02:02:44;8.00;8.00;6.00
46302;PMS7003;32029;51.358;5.628;2022-10-26T02:05:32;9.80;6.80;5.00
46302;PMS7003;32029;51.358;5.628;2022-10-26T02:08:14;9.00;9.00;6.40
46302;PMS7003;32029;51.358;5.628;2022-10-26T02:11:16;9.00;7.00;5.00
46302;PMS7003;32029;51.358;5.628;2022-10-26T02:13:55;12.00;6.40;5.40
46302;PMS7003;32029;51.358;5.628;2022-10-26T02:24:44;9.00;9.00;6.00
46302;PMS7003;32029;51.358;5.628;2022-10-26T02:27:22;8.60;8.00;5.60
46302;PMS7003;32029;51.358;5.628;2022-10-26T02:29:57;8.60;5.20;4.80
46302;PMS7003;32029;51.358;5.628;2022-10-26T02:32:28;6.40;6.40;5.60
46302;PMS7003;32029;51.358;5.628;2022-10-26T02:35:02;9.40;6.20;5.20
46302;PMS7003;32029;51.358;5.628;2022-10-26T02:37:33;7.60;5.80;4.80
46302;PMS7003;32029;51.358;5.628;2022-10-26T02:40:05;6.67;6.67;4.67
46302;PMS7003;32029;51.358;5.628;2022-10-26T02:42:36;5.33;5.33;5.00
46302;PMS7003;32029;51.358;5.628;2022-10-26T02:45:07;6.00;5.00;4.33
46302;PMS7003;32029;51.358;5.628;2022-10-26T02:47:39;8.60;6.00;5.00
46302;PMS7003;32029;51.358;5.628;2022-10-26T02:50:07;8.40;6.00;5.00
46302;PMS7003;32029;51.358;5.628;2022-10-26T02:55:43;4.33;4.33;3.00
46302;PMS7003;32029;51.358;5.628;2022-10-26T02:58:18;8.00;6.00;5.00
46302;PMS7003;32029;51.358;5.628;2022-10-26T03:00:50;8.00;6.67;4.67
46302;PMS7003;32029;51.358;5.628;2022-10-26T03:03:18;5.67;5.67;5.00
46302;PMS7003;32029;51.358;5.628;2022-10-26T03:05:47;6.20;5.00;3.00
46302;PMS7003;32029;51.358;5.628;2022-10-26T03:08:13;6.00;4.33;4.00
46302;PMS7003;32029;51.358;5.628;2022-10-26T03:10:42;7.80;7.60;5.20
46302;PMS7003;32029;51.358;5.628;2022-10-26T03:13:12;6.80;6.00;4.00
46302;PMS7003;32029;51.358;5.628;2022-10-26T03:15:39;4.00;4.00;4.00
46302;PMS7003;32029;51.358;5.628;2022-10-26T03:18:06;5.00;5.00;4.33
46302;PMS7003;32029;51.358;5.628;2022-10-26T03:20:43;5.00;3.80;3.00
46302;PMS7003;32029;51.358;5.628;2022-10-26T03:23:11;5.00;5.00;4.33
46302;PMS7003;32029;51.358;5.628;2022-10-26T03:25:39;8.80;6.00;4.00
46302;PMS7003;32029;51.358;5.628;2022-10-26T03:28:05;6.67;6.00;4.67
46302;PMS7003;32029;51.358;5.628;2022-10-26T03:30:36;5.00;5.00;5.00
46302;PMS7003;32029;51.358;5.628;2022-10-26T03:33:03;4.33;3.00;3.00
46302;PMS7003;32029;51.358;5.628;2022-10-26T03:35:29;6.33;5.00;4.00
46302;PMS7003;32029;51.358;5.628;2022-10-26T03:37:56;5.67;5.67;5.00
46302;PMS7003;32029;51.358;5.628;2022-10-26T03:40:23;6.33;3.00;2.67
46302;PMS7003;32029;51.358;5.628;2022-10-26T03:42:50;6.00;6.00;5.00
46302;PMS7003;32029;51.358;5.628;2022-10-26T03:45:17;11.33;6.67;5.00
46302;PMS7003;32029;51.358;5.628;2022-10-26T03:47:44;5.33;4.67;4.00
46302;PMS7003;32029;51.358;5.628;2022-10-26T03:50:13;7.00;6.00;4.00
46302;PMS7003;32029;51.358;5.628;2022-10-26T03:52:42;8.00;5.00;4.00
46302;PMS7003;32029;51.358;5.628;2022-10-26T03:55:09;5.00;5.00;4.00
46302;PMS7003;32029;51.358;5.628;2022-10-26T03:57:41;6.67;4.67;4.00
46302;PMS7003;32029;51.358;5.628;2022-10-26T04:00:10;4.60;4.00;4.00
46302;PMS7003;32029;51.358;5.628;2022-10-26T04:02:44;6.00;6.00;4.00
46302;PMS7003;32029;51.358;5.628;2022-10-26T04:05:14;6.80;5.20;4.00
46302;PMS7003;32029;51.358;5.628;2022-10-26T04:07:41;6.00;5.00;4.33
46302;PMS7003;32029;51.358;5.628;2022-10-26T04:10:09;5.00;4.00;3.00
46302;PMS7003;32029;51.358;5.628;2022-10-26T04:12:36;3.33;2.00;2.00
46302;PMS7003;32029;51.358;5.628;2022-10-26T04:15:05;4.33;4.00;3.00
46302;PMS7003;32029;51.358;5.628;2022-10-26T04:17:32;4.00;4.00;4.00
46302;PMS7003;32029;51.358;5.628;2022-10-26T04:19:59;5.00;4.00;3.67
46302;PMS7003;32029;51.358;5.628;2022-10-26T04:22:25;8.67;6.00;5.00
46302;PMS7003;32029;51.358;5.628;2022-10-26T04:24:53;8.60;5.00;4.20
46302;PMS7003;32029;51.358;5.628;2022-10-26T04:27:20;4.33;4.00;3.00
46302;PMS7003;32029;51.358;5.628;2022-10-26T04:29:48;4.00;4.00;3.00
46302;PMS7003;32029;51.358;5.628;2022-10-26T04:32:16;4.60;4.40;4.00
46302;PMS7003;32029;51.358;5.628;2022-10-26T04:34:43;7.67;4.33;4.00
46302;PMS7003;32029;51.358;5.628;2022-10-26T04:37:09;3.00;3.00;2.67
46302;PMS7003;32029;51.358;5.628;2022-10-26T04:39:37;8.20;5.00;4.00
46302;PMS7003;32029;51.358;5.628;2022-10-26T04:42:04;4.00;4.00;3.33
46302;PMS7003;32029;51.358;5.628;2022-10-26T04:44:32;4.00;4.00;3.60
46302;PMS7003;32029;51.358;5.628;2022-10-26T04:47:00;6.33;4.00;3.33
46302;PMS7003;32029;51.358;5.628;2022-10-26T04:49:27;2.33;1.00;1.00
46302;PMS7003;32029;51.358;5.628;2022-10-26T04:51:53;3.00;3.00;2.00
46302;PMS7003;32029;51.358;5.628;2022-10-26T04:54:20;5.00;5.00;4.00
46302;PMS7003;32029;51.358;5.628;2022-10-26T04:56:47;7.33;6.00;4.00
46302;PMS7003;32029;51.358;5.628;2022-10-26T04:59:14;11.80;5.00;4.00
46302;PMS7003;32029;51.358;5.628;2022-10-26T05:01:43;5.33;4.67;4.00
46302;PMS7003;32029;51.358;5.628;2022-10-26T05:04:09;3.67;3.67;3.00
46302;PMS7003;32029;51.358;5.628;2022-10-26T05:06:36;6.67;4.00;3.00
46302;PMS7003;32029;51.358;5.628;2022-10-26T05:09:04;6.00;6.00;4.33
46302;PMS7003;32029;51.358;5.628;2022-10-26T05:11:32;10.00;5.60;3.80
46302;PMS7003;32029;51.358;5.628;2022-10-26T05:14:00;6.20;4.20;4.00
46302;PMS7003;32029;51.358;5.628;2022-10-26T05:16:26;4.33;4.33;4.00
46302;PMS7003;32029;51.358;5.628;2022-10-26T05:18:54;4.00;3.00;3.00
46302;PMS7003;32029;51.358;5.628;2022-10-26T05:21:21;5.67;4.00;3.00
46302;PMS7003;32029;51.358;5.628;2022-10-26T05:23:49;5.40;5.40;3.80
46302;PMS7003;32029;51.358;5.628;2022-10-26T05:26:21;7.60;7.00;5.00
46302;PMS7003;32029;51.358;5.628;2022-10-26T05:28:51;4.60;4.60;3.60
46302;PMS7003;32029;51.358;5.628;2022-10-26T05:31:19;6.33;4.67;3.00
46302;PMS7003;32029;51.358;5.628;2022-10-26T05:33:49;6.40;3.60;3.00
46302;PMS7003;32029;51.358;5.628;2022-10-26T05:36:17;6.33;4.33;3.33
46302;PMS7003;32029;51.358;5.628;2022-10-26T05:38:44;6.67;4.67;4.00
46302;PMS7003;32029;51.358;5.628;2022-10-26T05:41:11;7.00;5.00;3.00
46302;PMS7003;32029;51.358;5.628;2022-10-26T05:43:38;5.67;4.67;4.00
46302;PMS7003;32029;51.358;5.628;2022-10-26T05:46:04;5.67;4.00;4.00
46302;PMS7003;32029;51.358;5.628;2022-10-26T05:48:32;5.40;5.40;4.00
46302;PMS7003;32029;51.358;5.628;2022-10-26T05:50:59;5.00;5.00;3.00
46302;PMS7003;32029;51.358;5.628;2022-10-26T05:53:27;4.00;4.00;3.00
46302;PMS7003;32029;51.358;5.628;2022-10-26T05:55:56;5.33;4.00;3.00
46302;PMS7003;32029;51.358;5.628;2022-10-26T05:58:23;6.33;4.67;4.00
46302;PMS7003;32029;51.358;5.628;2022-10-26T06:06:02;6.00;5.00;4.00
46302;PMS7003;32029;51.358;5.628;2022-10-26T06:08:29;4.33;4.33;4.00
46302;PMS7003;32029;51.358;5.628;2022-10-26T06:10:57;3.67;3.67;3.00
46302;PMS7003;32029;51.358;5.628;2022-10-26T06:13:28;4.33;4.00;4.00
46302;PMS7003;32029;51.358;5.628;2022-10-26T06:21:19;5.00;4.00;3.33
46302;PMS7003;32029;51.358;5.628;2022-10-26T06:24:03;7.60;4.20;3.40
46302;PMS7003;32029;51.358;5.628;2022-10-26T06:32:27;4.33;3.67;3.00
46302;PMS7003;32029;51.358;5.628;2022-10-26T06:34:58;5.00;5.00;4.00
46302;PMS7003;32029;51.358;5.628;2022-10-26T06:37:46;6.00;6.00;3.00
46302;PMS7003;32029;51.358;5.628;2022-10-26T06:40:15;4.00;4.00;3.00
46302;PMS7003;32029;51.358;5.628;2022-10-26T06:42:44;4.60;3.80;3.00
46302;PMS7003;32029;51.358;5.628;2022-10-26T06:45:11;5.33;4.00;3.00
46302;PMS7003;32029;51.358;5.628;2022-10-26T06:50:35;6.40;5.00;4.00
46302;PMS7003;32029;51.358;5.628;2022-10-26T06:55:36;4.67;4.67;3.33
46302;PMS7003;32029;51.358;5.628;2022-10-26T06:58:11;5.67;5.67;4.00
46302;PMS7003;32029;51.358;5.628;2022-10-26T07:00:42;7.00;5.00;4.33
46302;PMS7003;32029;51.358;5.628;2022-10-26T07:03:11;5.40;4.40;3.80
46302;PMS7003;32029;51.358;5.628;2022-10-26T07:05:41;6.67;5.67;5.00
46302;PMS7003;32029;51.358;5.628;2022-10-26T07:08:10;8.60;5.00;4.00
46302;PMS7003;32029;51.358;5.628;2022-10-26T07:10:37;5.33;5.00;4.00
46302;PMS7003;32029;51.358;5.628;2022-10-26T07:13:05;5.60;4.80;4.00
46302;PMS7003;32029;51.358;5.628;2022-10-26T07:15:33;6.00;5.33;4.00
46302;PMS7003;32029;51.358;5.628;2022-10-26T07:18:01;6.33;5.33;4.00
46302;PMS7003;32029;51.358;5.628;2022-10-26T07:20:31;4.67;3.00;2.00
46302;PMS7003;32029;51.358;5.628;2022-10-26T07:23:02;5.00;5.00;4.00
46302;PMS7003;32029;51.358;5.628;2022-10-26T07:25:33;7.40;4.60;3.40
46302;PMS7003;32029;51.358;5.628;2022-10-26T07:28:01;6.00;4.80;4.00
46302;PMS7003;32029;51.358;5.628;2022-10-26T07:30:28;4.33;4.33;4.00
46302;PMS7003;32029;51.358;5.628;2022-10-26T07:33:01;9.67;6.00;5.00
46302;PMS7003;32029;51.358;5.628;2022-10-26T07:35:37;7.40;5.80;5.00
46302;PMS7003;32029;51.358;5.628;2022-10-26T07:38:05;6.40;5.20;5.00
46302;PMS7003;32029;51.358;5.628;2022-10-26T07:40:34;5.60;5.00;4.20
46302;PMS7003;32029;51.358;5.628;2022-10-26T07:43:02;7.00;7.00;5.00
46302;PMS7003;32029;51.358;5.628;2022-10-26T07:45:29;6.00;6.00;4.33
46302;PMS7003;32029;51.358;5.628;2022-10-26T07:47:56;7.67;6.00;4.00
46302;PMS7003;32029;51.358;5.628;2022-10-26T07:50:23;5.67;5.67;4.00
46302;PMS7003;32029;51.358;5.628;2022-10-26T07:52:50;9.33;5.67;4.33
46302;PMS7003;32029;51.358;5.628;2022-10-26T07:55:18;7.20;6.60;5.40
46302;PMS7003;32029;51.358;5.628;2022-10-26T07:57:46;9.00;6.60;4.80
46302;PMS7003;32029;51.358;5.628;2022-10-26T08:00:14;6.00;5.00;4.60
46302;PMS7003;32029;51.358;5.628;2022-10-26T08:02:42;6.60;5.60;5.00
46302;PMS7003;32029;51.358;5.628;2022-10-26T08:05:08;7.00;6.00;4.00
46302;PMS7003;32029;51.358;5.628;2022-10-26T08:07:39;5.67;4.67;4.00
46302;PMS7003;32029;51.358;5.628;2022-10-26T08:10:08;7.00;6.00;5.00
46302;PMS7003;32029;51.358;5.628;2022-10-26T08:12:37;6.80;5.20;5.00
46302;PMS7003;32029;51.358;5.628;2022-10-26T08:15:05;5.80;4.80;4.00
46302;PMS7003;32029;51.358;5.628;2022-10-26T08:17:32;4.67;4.67;4.00
46302;PMS7003;32029;51.358;5.628;2022-10-26T08:19:59;6.67;6.00;5.00
46302;PMS7003;32029;51.358;5.628;2022-10-26T08:22:28;4.80;4.80;3.80
46302;PMS7003;32029;51.358;5.628;2022-10-26T08:24:56;6.00;4.00;3.00
46302;PMS7003;32029;51.358;5.628;2022-10-26T08:27:23;7.00;5.80;4.00
46302;PMS7003;32029;51.358;5.628;2022-10-26T08:29:51;4.80;3.40;3.20
46302;PMS7003;32029;51.358;5.628;2022-10-26T08:32:19;6.20;6.20;5.20
46302;PMS7003;32029;51.358;5.628;2022-10-26T08:34:47;5.80;5.80;5.00
46302;PMS7003;32029;51.358;5.628;2022-10-26T08:37:15;5.60;5.00;4.00
46302;PMS7003;32029;51.358;5.628;2022-10-26T08:39:43;5.40;4.00;3.20
46302;PMS7003;32029;51.358;5.628;2022-10-26T08:42:30;7.00;4.40;3.60
46302;PMS7003;32029;51.358;5.628;2022-10-26T08:45:16;4.00;4.00;3.00
46302;PMS7003;32029;51.358;5.628;2022-10-26T08:47:52;4.00;4.00;3.67
46302;PMS7003;32029;51.358;5.628;2022-10-26T08:50:25;4.20;3.80;3.40
46302;PMS7003;32029;51.358;5.628;2022-10-26T08:53:00;4.00;4.00;3.00
46302;PMS7003;32029;51.358;5.628;2022-10-26T08:56:20;4.00;4.00;3.00
46302;PMS7003;32029;51.358;5.628;2022-10-26T08:58:26;5.67;5.00;3.00
46302;PMS7003;32029;51.358;5.628;2022-10-26T09:00:57;4.00;3.00;3.00
46302;PMS7003;32029;51.358;5.628;2022-10-26T09:03:24;3.33;3.33;3.00
46302;PMS7003;32029;51.358;5.628;2022-10-26T09:20:17;6.00;4.67;3.67
46302;PMS7003;32029;51.358;5.628;2022-10-26T09:25:39;4.33;3.00;2.33
46302;PMS7003;32029;51.358;5.628;2022-10-26T09:28:11;4.00;4.00;3.00
46302;PMS7003;32029;51.358;5.628;2022-10-26T09:30:42;5.33;3.00;3.00
46302;PMS7003;32029;51.358;5.628;2022-10-26T09:35:47;5.00;4.00;4.00
46302;PMS7003;32029;51.358;5.628;2022-10-26T09:38:25;1.67;1.00;0.00
46302;PMS7003;32029;51.358;5.628;2022-10-26T09:41:08;5.00;3.00;2.00
46302;PMS7003;32029;51.358;5.628;2022-10-26T09:43:48;5.00;4.00;3.00
46302;PMS7003;32029;51.358;5.628;2022-10-26T09:46:25;4.60;4.40;3.80
46302;PMS7003;32029;51.358;5.628;2022-10-26T09:48:59;4.20;2.60;2.20
46302;PMS7003;32029;51.358;5.628;2022-10-26T09:51:32;4.67;4.67;2.67
46302;PMS7003;32029;51.358;5.628;2022-10-26T09:54:04;4.00;4.00;3.00
46302;PMS7003;32029;51.358;5.628;2022-10-26T09:56:40;5.00;5.00;3.00
46302;PMS7003;32029;51.358;5.628;2022-10-26T09:59:10;6.00;4.33;3.00
46302;PMS7003;32029;51.358;5.628;2022-10-26T10:01:39;3.00;3.00;2.20
46302;PMS7003;32029;51.358;5.628;2022-10-26T10:04:16;3.00;3.00;2.00
46302;PMS7003;32029;51.358;5.628;2022-10-26T10:07:10;4.00;4.00;2.67
46302;PMS7003;32029;51.358;5.628;2022-10-26T10:09:40;4.80;3.40;3.00
46302;PMS7003;32029;51.358;5.628;2022-10-26T10:12:17;4.00;3.00;3.00
46302;PMS7003;32029;51.358;5.628;2022-10-26T10:14:56;3.00;3.00;2.80
46302;PMS7003;32029;51.358;5.628;2022-10-26T10:17:25;3.20;2.40;2.40
46302;PMS7003;32029;51.358;5.628;2022-10-26T10:19:53;4.60;3.80;3.00
46302;PMS7003;32029;51.358;5.628;2022-10-26T10:22:32;5.00;3.00;3.00
46302;PMS7003;32029;51.358;5.628;2022-10-26T10:25:00;3.60;3.20;2.80
46302;PMS7003;32029;51.358;5.628;2022-10-26T10:27:29;3.33;2.33;2.00
46302;PMS7003;32029;51.358;5.628;2022-10-26T10:29:58;3.40;3.20;2.00
46302;PMS7003;32029;51.358;5.628;2022-10-26T10:32:47;3.80;3.40;3.00
46302;PMS7003;32029;51.358;5.628;2022-10-26T10:35:31;2.20;2.20;2.00
46302;PMS7003;32029;51.358;5.628;2022-10-26T10:37:59;4.00;3.00;3.00
46302;PMS7003;32029;51.358;5.628;2022-10-26T10:40:27;4.40;4.00;3.00
46302;PMS7003;32029;51.358;5.628;2022-10-26T10:43:05;3.60;3.60;3.00
46302;PMS7003;32029;51.358;5.628;2022-10-26T10:45:38;2.67;2.00;2.00
46302;PMS7003;32029;51.358;5.628;2022-10-26T10:50:55;3.33;3.33;3.00
46302;PMS7003;32029;51.358;5.628;2022-10-26T10:53:34;4.00;2.33;2.33
46302;PMS7003;32029;51.358;5.628;2022-10-26T11:07:49;2.00;2.00;2.00
46302;PMS7003;32029;51.358;5.628;2022-10-26T11:10:27;4.00;3.00;3.00
46302;PMS7003;32029;51.358;5.628;2022-10-26T11:13:00;3.00;3.00;3.00
46302;PMS7003;32029;51.358;5.628;2022-10-26T11:15:45;4.67;2.33;2.00
46302;PMS7003;32029;51.358;5.628;2022-10-26T11:18:26;2.00;2.00;2.00
46302;PMS7003;32029;51.358;5.628;2022-10-26T11:21:04;3.00;3.00;3.00
46302;PMS7003;32029;51.358;5.628;2022-10-26T11:23:46;2.60;2.60;2.00
46302;PMS7003;32029;51.358;5.628;2022-10-26T11:26:23;3.00;2.33;2.33
46302;PMS7003;32029;51.358;5.628;2022-10-26T11:31:45;2.00;2.00;2.00
46302;PMS7003;32029;51.358;5.628;2022-10-26T11:34:20;3.33;3.00;2.00
46302;PMS7003;32029;51.358;5.628;2022-10-26T11:37:02;2.33;2.00;2.00
46302;PMS7003;32029;51.358;5.628;2022-10-26T11:39:46;3.00;2.00;2.00
46302;PMS7003;32029;51.358;5.628;2022-10-26T11:42:29;2.00;2.00;2.00
46302;PMS7003;32029;51.358;5.628;2022-10-26T11:47:52;2.00;2.00;1.00
46302;PMS7003;32029;51.358;5.628;2022-10-26T11:50:32;4.00;2.20;2.00
46302;PMS7003;32029;51.358;5.628;2022-10-26T11:55:46;1.40;1.40;1.00
46302;PMS7003;32029;51.358;5.628;2022-10-26T11:58:18;2.40;1.80;1.80
46302;PMS7003;32029;51.358;5.628;2022-10-26T12:00:50;1.00;1.00;1.00
46302;PMS7003;32029;51.358;5.628;2022-10-26T12:03:25;1.33;1.33;1.00
46302;PMS7003;32029;51.358;5.628;2022-10-26T12:05:54;3.67;2.00;1.67
46302;PMS7003;32029;51.358;5.628;2022-10-26T12:08:29;1.80;1.80;1.80
46302;PMS7003;32029;51.358;5.628;2022-10-26T12:11:12;3.20;2.60;2.00
46302;PMS7003;32029;51.358;5.628;2022-10-26T12:15:08;1.33;1.33;1.00
46302;PMS7003;32029;51.358;5.628;2022-10-26T12:17:15;3.20;2.00;2.00
46302;PMS7003;32029;51.358;5.628;2022-10-26T12:20:35;3.00;3.00;2.20
46302;PMS7003;32029;51.358;5.628;2022-10-26T12:23:04;2.67;2.67;1.67
46302;PMS7003;32029;51.358;5.628;2022-10-26T12:25:37;2.00;2.00;2.00
46302;PMS7003;32029;51.358;5.628;2022-10-26T12:28:06;2.60;2.00;1.80
46302;PMS7003;32029;51.358;5.628;2022-10-26T12:34:03;3.80;2.60;2.20
46302;PMS7003;32029;51.358;5.628;2022-10-26T12:39:25;2.00;2.00;2.00
46302;PMS7003;32029;51.358;5.628;2022-10-26T12:45:17;2.67;1.00;1.00
46302;PMS7003;32029;51.358;5.628;2022-10-26T12:49:59;1.20;1.00;1.00
46302;PMS7003;32029;51.358;5.628;2022-10-26T12:52:42;0.33;0.00;0.00
46302;PMS7003;32029;51.358;5.628;2022-10-26T13:06:16;2.60;1.60;1.40
46302;PMS7003;32029;51.358;5.628;2022-10-26T13:09:06;1.00;0.67;0.67
46302;PMS7003;32029;51.358;5.628;2022-10-26T13:11:35;1.33;0.00;0.00
46302;PMS7003;32029;51.358;5.628;2022-10-26T13:14:04;0.00;0.00;0.00
46302;PMS7003;32029;51.358;5.628;2022-10-26T13:16:41;0.33;0.33;0.33
46302;PMS7003;32029;51.358;5.628;2022-10-26T13:19:31;0.60;0.60;0.40
46302;PMS7003;32029;51.358;5.628;2022-10-26T13:22:12;0.33;0.33;0.33
46302;PMS7003;32029;51.358;5.628;2022-10-26T13:24:46;1.00;1.00;1.00
46302;PMS7003;32029;51.358;5.628;2022-10-26T13:32:32;1.00;1.00;1.00
46302;PMS7003;32029;51.358;5.628;2022-10-26T13:35:02;1.00;0.33;0.33
46302;PMS7003;32029;51.358;5.628;2022-10-26T13:37:31;1.33;0.33;0.33
46302;PMS7003;32029;51.358;5.628;2022-10-26T13:39:59;1.00;1.00;0.67
46302;PMS7003;32029;51.358;5.628;2022-10-26T13:42:38;0.67;0.67;0.67
46302;PMS7003;32029;51.358;5.628;2022-10-26T13:45:12;0.67;0.67;0.67
46302;PMS7003;32029;51.358;5.628;2022-10-26T13:47:44;0.67;0.67;0.67
46302;PMS7003;32029;51.358;5.628;2022-10-26T13:50:19;1.60;1.60;0.60
46302;PMS7003;32029;51.358;5.628;2022-10-26T13:52:50;0.00;0.00;0.00
46302;PMS7003;32029;51.358;5.628;2022-10-26T13:55:47;0.00;0.00;0.00
46302;PMS7003;32029;51.358;5.628;2022-10-26T13:58:21;1.20;1.20;1.00
46302;PMS7003;32029;51.358;5.628;2022-10-26T14:01:20;1.00;1.00;0.67
46302;PMS7003;32029;51.358;5.628;2022-10-26T14:03:51;0.00;0.00;0.00
46302;PMS7003;32029;51.358;5.628;2022-10-26T14:09:00;0.00;0.00;0.00
46302;PMS7003;32029;51.358;5.628;2022-10-26T14:11:34;0.67;0.67;0.00
46302;PMS7003;32029;51.358;5.628;2022-10-26T14:14:12;1.00;0.00;0.00
46302;PMS7003;32029;51.358;5.628;2022-10-26T14:16:44;5.00;4.67;3.33
46302;PMS7003;32029;51.358;5.628;2022-10-26T14:19:14;1.00;0.67;0.67
46302;PMS7003;32029;51.358;5.628;2022-10-26T14:21:57;2.67;1.00;1.00
46302;PMS7003;32029;51.358;5.628;2022-10-26T14:24:27;1.00;1.00;1.00
46302;PMS7003;32029;51.358;5.628;2022-10-26T14:27:14;3.00;2.00;2.00
46302;PMS7003;32029;51.358;5.628;2022-10-26T14:29:43;1.40;1.20;1.00
46302;PMS7003;32029;51.358;5.628;2022-10-26T14:32:20;1.00;1.00;1.00
46302;PMS7003;32029;51.358;5.628;2022-10-26T14:34:50;1.60;1.60;1.20
46302;PMS7003;32029;51.358;5.628;2022-10-26T14:37:26;2.20;1.40;1.00
46302;PMS7003;32029;51.358;5.628;2022-10-26T14:40:01;0.67;0.67;0.33
46302;PMS7003;32029;51.358;5.628;2022-10-26T14:42:31;1.40;1.40;0.60
46302;PMS7003;32029;51.358;5.628;2022-10-26T14:45:00;1.67;0.67;0.67
46302;PMS7003;32029;51.358;5.628;2022-10-26T14:47:34;1.60;0.60;0.60
46302;PMS7003;32029;51.358;5.628;2022-10-26T14:50:01;1.00;1.00;1.00
46302;PMS7003;32029;51.358;5.628;2022-10-26T14:52:33;0.80;0.80;0.60
46302;PMS7003;32029;51.358;5.628;2022-10-26T14:55:11;1.00;1.00;0.67
46302;PMS7003;32029;51.358;5.628;2022-10-26T14:57:41;1.00;0.67;0.67
46302;PMS7003;32029;51.358;5.628;2022-10-26T15:02:48;5.00;1.00;1.00
46302;PMS7003;32029;51.358;5.628;2022-10-26T15:05:31;2.00;2.00;1.00
46302;PMS7003;32029;51.358;5.628;2022-10-26T15:08:00;2.33;1.00;1.00
46302;PMS7003;32029;51.358;5.628;2022-10-26T15:18:42;2.20;1.00;1.00
46302;PMS7003;32029;51.358;5.628;2022-10-26T15:21:27;1.00;1.00;1.00
46302;PMS7003;32029;51.358;5.628;2022-10-26T15:24:00;1.00;1.00;1.00
46302;PMS7003;32029;51.358;5.628;2022-10-26T15:26:28;1.00;1.00;1.00
46302;PMS7003;32029;51.358;5.628;2022-10-26T15:28:57;3.00;2.00;2.00
46302;PMS7003;32029;51.358;5.628;2022-10-26T15:36:19;2.00;2.00;1.00
46302;PMS7003;32029;51.358;5.628;2022-10-26T15:38:51;1.00;1.00;1.00
46302;PMS7003;32029;51.358;5.628;2022-10-26T15:43:50;2.00;2.00;2.00
46302;PMS7003;32029;51.358;5.628;2022-10-26T15:46:19;2.33;2.33;2.00
46302;PMS7003;32029;51.358;5.628;2022-10-26T15:48:48;2.00;2.00;2.00
46302;PMS7003;32029;51.358;5.628;2022-10-26T15:51:24;2.00;2.00;1.80
46302;PMS7003;32029;51.358;5.628;2022-10-26T15:53:52;2.60;2.60;2.00
46302;PMS7003;32029;51.358;5.628;2022-10-26T15:56:20;2.33;2.00;2.00
46302;PMS7003;32029;51.358;5.628;2022-10-26T15:58:51;2.40;2.00;2.00
46302;PMS7003;32029;51.358;5.628;2022-10-26T16:01:22;2.00;2.00;2.00
46302;PMS7003;32029;51.358;5.628;2022-10-26T16:03:50;1.33;1.33;1.00
46302;PMS7003;32029;51.358;5.628;2022-10-26T16:06:25;5.00;3.40;2.00
46302;PMS7003;32029;51.358;5.628;2022-10-26T16:08:54;2.67;2.00;2.00
46302;PMS7003;32029;51.358;5.628;2022-10-26T16:11:23;1.67;1.67;1.00
46302;PMS7003;32029;51.358;5.628;2022-10-26T16:13:51;1.00;1.00;1.00
46302;PMS7003;32029;51.358;5.628;2022-10-26T16:16:18;2.00;2.00;1.67
46302;PMS7003;32029;51.358;5.628;2022-10-26T16:18:47;5.20;3.60;2.60
46302;PMS7003;32029;51.358;5.628;2022-10-26T16:21:19;5.00;5.00;4.00
46302;PMS7003;32029;51.358;5.628;2022-10-26T16:23:48;3.60;3.60;2.80
46302;PMS7003;32029;51.358;5.628;2022-10-26T16:26:18;2.00;2.00;2.00
46302;PMS7003;32029;51.358;5.628;2022-10-26T16:28:47;3.20;3.20;2.40
46302;PMS7003;32029;51.358;5.628;2022-10-26T16:31:15;3.60;2.40;2.00
46302;PMS7003;32029;51.358;5.628;2022-10-26T16:33:45;2.60;2.00;2.00
46302;PMS7003;32029;51.358;5.628;2022-10-26T16:36:12;2.00;2.00;2.00
46302;PMS7003;32029;51.358;5.628;2022-10-26T16:38:40;3.20;3.20;2.80
46302;PMS7003;32029;51.358;5.628;2022-10-26T16:43:38;2.00;2.00;2.00
46302;PMS7003;32029;51.358;5.628;2022-10-26T16:46:07;4.00;3.00;2.67
46302;PMS7003;32029;51.358;5.628;2022-10-26T16:48:36;4.00;2.00;2.00
46302;PMS7003;32029;51.358;5.628;2022-10-26T16:51:08;3.20;3.00;2.20
46302;PMS7003;32029;51.358;5.628;2022-10-26T16:53:37;8.00;7.00;5.33
46302;PMS7003;32029;51.358;5.628;2022-10-26T16:56:09;6.00;6.00;4.20
46302;PMS7003;32029;51.358;5.628;2022-10-26T16:58:42;5.00;4.20;3.00